createdAt,value
2023-06-21T00:00:46.828Z,19.08
2023-06-21T00:03:15.223Z,18.65
2023-06-21T00:05:42.462Z,18.35
2023-06-21T00:08:09.528Z,22.20
2023-06-21T00:10:36.414Z,19.08
2023-06-21T00:13:03.694Z,18.17
2023-06-21T00:15:30.711Z,19.05
2023-06-21T00:17:58.376Z,17.58
2023-06-21T00:20:25.600Z,22.42
2023-06-21T00:22:57.385Z,17.85
2023-06-21T00:25:25.351Z,20.27
2023-06-21T00:27:52.373Z,18.45
2023-06-21T00:30:19.276Z,22.52
2023-06-21T00:32:46.519Z,23.67
2023-06-21T00:35:13.455Z,21.63
2023-06-21T00:37:40.403Z,19.80
2023-06-21T00:40:13.519Z,20.67
2023-06-21T00:42:40.858Z,18.33
2023-06-21T00:45:10.198Z,23.00
2023-06-21T00:47:37.608Z,20.65
2023-06-21T00:50:05.491Z,22.08
2023-06-21T00:52:33.348Z,19.63
2023-06-21T00:55:00.354Z,23.20
2023-06-21T00:57:27.219Z,21.10
2023-06-21T00:59:54.676Z,18.83
2023-06-21T01:02:21.729Z,19.05
2023-06-21T01:04:50.839Z,16.65
2023-06-21T01:07:53.262Z,20.40
2023-06-21T01:10:38.850Z,19.75
2023-06-21T01:13:15.510Z,21.10
2023-06-21T01:15:47.436Z,20.23
2023-06-21T01:18:16.829Z,17.13
2023-06-21T01:20:50.997Z,20.80
2023-06-21T01:23:26.830Z,18.35
2023-06-21T01:26:04.590Z,19.98
2023-06-21T01:28:53.418Z,20.35
2023-06-21T01:31:24.792Z,18.90
2023-06-21T01:33:53.653Z,18.95
2023-06-21T01:36:21.259Z,18.80
2023-06-21T01:38:51.079Z,18.02
2023-06-21T01:41:24.533Z,21.80
2023-06-21T01:43:51.884Z,18.38
2023-06-21T01:46:22.735Z,17.13
2023-06-21T01:48:52.156Z,23.30
2023-06-21T01:51:20.755Z,17.35
2023-06-21T01:53:49.007Z,17.90
2023-06-21T01:56:18.342Z,16.10
2023-06-21T01:58:48.061Z,19.65
2023-06-21T02:01:15.521Z,17.23
2023-06-21T02:03:49.604Z,16.42
2023-06-21T02:06:18.097Z,16.33
2023-06-21T02:08:46.241Z,19.98
2023-06-21T02:11:14.545Z,21.52
2023-06-21T02:13:42.108Z,17.35
2023-06-21T02:16:09.878Z,19.02
2023-06-21T02:18:37.004Z,19.65
2023-06-21T02:21:04.434Z,16.30
2023-06-21T02:23:31.483Z,19.33
2023-06-21T02:25:58.647Z,20.17
2023-06-21T02:28:26.718Z,16.90
2023-06-21T02:30:53.888Z,17.20
2023-06-21T02:33:21.107Z,23.00
2023-06-21T02:35:48.503Z,18.48
2023-06-21T02:38:15.624Z,22.95
2023-06-21T02:40:43.819Z,18.35
2023-06-21T02:43:11.380Z,18.08
2023-06-21T02:45:39.127Z,19.10
2023-06-21T02:48:08.495Z,24.13
2023-06-21T02:50:36.987Z,17.92
2023-06-21T02:53:04.266Z,20.52
2023-06-21T02:55:31.806Z,18.98
2023-06-21T02:57:58.826Z,24.15
2023-06-21T03:00:30.263Z,20.35
2023-06-21T03:03:02.122Z,18.02
2023-06-21T03:05:37.694Z,20.70
2023-06-21T03:08:06.433Z,19.83
2023-06-21T03:10:34.420Z,17.50
2023-06-21T03:13:01.956Z,22.17
2023-06-21T03:15:29.505Z,19.73
2023-06-21T03:17:56.676Z,24.83
2023-06-21T03:20:26.770Z,25.05
2023-06-21T03:22:54.581Z,28.25
2023-06-21T03:25:21.624Z,27.45
2023-06-21T03:27:49.119Z,20.73
2023-06-21T03:30:16.492Z,22.05
2023-06-21T03:32:49.424Z,20.27
2023-06-21T03:35:18.778Z,22.92
2023-06-21T03:37:48.027Z,22.50
2023-06-21T03:40:15.818Z,23.85
2023-06-21T03:42:44.321Z,19.63
2023-06-21T03:45:12.196Z,20.40
2023-06-21T03:47:41.427Z,20.67
2023-06-21T03:50:09.884Z,18.67
2023-06-21T03:52:37.554Z,17.95
2023-06-21T03:55:05.758Z,19.05
2023-06-21T03:57:33.383Z,25.10
2023-06-21T04:04:33.096Z,19.25
2023-06-21T04:07:00.064Z,19.45
2023-06-21T04:09:26.911Z,17.60
2023-06-21T04:11:54.073Z,17.38
2023-06-21T04:14:20.898Z,20.58
2023-06-21T04:16:48.017Z,18.98
2023-06-21T04:19:15.138Z,17.10
2023-06-21T04:21:42.124Z,19.13
2023-06-21T04:24:09.241Z,18.02
2023-06-21T04:26:36.317Z,19.08
2023-06-21T04:29:03.447Z,21.95
2023-06-21T04:31:30.428Z,23.52
2023-06-21T04:33:59.716Z,22.70
2023-06-21T04:36:26.995Z,23.15
2023-06-21T04:38:56.308Z,25.67
2023-06-21T04:41:23.737Z,19.45
2023-06-21T04:43:52.288Z,19.67
2023-06-21T04:46:19.854Z,18.10
2023-06-21T04:48:49.433Z,20.55
2023-06-21T04:51:16.740Z,17.45
2023-06-21T04:53:50.323Z,17.88
2023-06-21T04:56:17.613Z,28.40
2023-06-21T04:58:45.574Z,17.73
2023-06-21T05:01:14.986Z,15.93
2023-06-21T05:03:43.491Z,15.80
2023-06-21T05:06:11.268Z,15.05
2023-06-21T05:08:39.713Z,14.82
2023-06-21T05:11:08.268Z,18.38
2023-06-21T05:13:35.420Z,15.25
2023-06-21T05:16:02.648Z,14.98
2023-06-21T05:18:30.670Z,14.45
2023-06-21T05:20:57.499Z,14.43
2023-06-21T05:23:25.381Z,16.58
2023-06-21T05:25:54.510Z,14.95
2023-06-21T05:28:23.394Z,15.68
2023-06-21T05:30:50.446Z,13.52
2023-06-21T05:33:17.632Z,11.93
2023-06-21T05:35:44.671Z,17.17
2023-06-21T05:38:14.799Z,18.42
2023-06-21T05:40:42.182Z,14.02
2023-06-21T05:43:09.115Z,17.08
2023-06-21T05:45:38.132Z,19.35
2023-06-21T05:48:05.755Z,13.63
2023-06-21T05:50:32.970Z,12.23
2023-06-21T05:53:00.048Z,14.48
2023-06-21T05:55:27.305Z,15.68
2023-06-21T05:57:55.362Z,13.82
2023-06-21T06:00:22.637Z,16.20
2023-06-21T06:02:50.879Z,14.40
2023-06-21T06:05:19.710Z,16.50
2023-06-21T06:07:47.542Z,15.85
2023-06-21T06:10:14.806Z,13.15
2023-06-21T06:12:41.661Z,11.68
2023-06-21T06:15:09.347Z,16.30
2023-06-21T06:17:36.507Z,12.50
2023-06-21T06:20:07.511Z,13.60
2023-06-21T06:22:37.309Z,17.23
2023-06-21T06:25:04.533Z,12.55
2023-06-21T06:27:31.433Z,16.80
2023-06-21T06:29:59.286Z,18.83
2023-06-21T06:32:28.832Z,12.25
2023-06-21T06:34:55.787Z,15.90
2023-06-21T06:37:30.727Z,14.52
2023-06-21T06:39:59.221Z,13.65
2023-06-21T06:42:26.158Z,16.00
2023-06-21T06:44:54.574Z,13.20
2023-06-21T06:47:21.897Z,14.80
2023-06-21T06:49:48.889Z,10.60
2023-06-21T06:52:15.899Z,10.50
2023-06-21T06:54:42.730Z,13.90
2023-06-21T06:57:13.647Z,12.75
2023-06-21T06:59:49.796Z,16.70
2023-06-21T07:02:16.806Z,18.05
2023-06-21T07:04:43.773Z,13.10
2023-06-21T07:07:10.707Z,17.52
2023-06-21T07:09:39.182Z,16.05
2023-06-21T07:12:06.557Z,12.30
2023-06-21T07:14:33.495Z,15.82
2023-06-21T07:17:00.526Z,9.48
2023-06-21T07:19:27.388Z,10.90
2023-06-21T07:21:54.280Z,10.00
2023-06-21T07:24:21.255Z,10.57
2023-06-21T07:26:48.143Z,10.13
2023-06-21T07:29:15.031Z,11.95
2023-06-21T07:31:41.903Z,12.00
2023-06-21T07:34:10.635Z,13.30
2023-06-21T07:36:39.937Z,12.05
2023-06-21T07:39:09.739Z,13.43
2023-06-21T07:41:36.887Z,10.25
2023-06-21T07:44:03.899Z,16.40
2023-06-21T07:46:30.936Z,11.35
2023-06-21T07:48:57.837Z,11.30
2023-06-21T07:51:24.773Z,10.55
2023-06-21T07:53:51.752Z,15.40
2023-06-21T07:56:18.776Z,11.73
2023-06-21T07:58:45.693Z,13.38
2023-06-21T08:01:13.630Z,10.85
2023-06-21T08:03:43.708Z,15.10
2023-06-21T08:06:10.618Z,22.77
2023-06-21T08:08:37.588Z,12.18
2023-06-21T08:11:05.041Z,11.57
2023-06-21T08:13:32.029Z,11.38
2023-06-21T08:15:58.928Z,16.83
2023-06-21T08:18:25.813Z,12.10
2023-06-21T08:20:53.010Z,18.02
2023-06-21T08:23:19.884Z,13.15
2023-06-21T08:25:47.894Z,10.23
2023-06-21T08:28:14.842Z,18.65
2023-06-21T08:30:41.793Z,14.90
2023-06-21T08:33:10.497Z,12.23
2023-06-21T08:35:38.947Z,14.82
2023-06-21T08:38:22.572Z,11.70
2023-06-21T08:40:55.155Z,10.63
2023-06-21T08:43:22.942Z,9.43
2023-06-21T08:45:50.857Z,13.45
2023-06-21T08:48:20.031Z,10.93
2023-06-21T08:50:47.346Z,12.07
2023-06-21T08:53:21.352Z,10.07
2023-06-21T08:55:49.149Z,10.90
2023-06-21T08:58:21.774Z,15.20
2023-06-21T09:00:54.929Z,8.10
2023-06-21T09:03:37.853Z,11.27
2023-06-21T09:06:11.872Z,8.50
2023-06-21T09:08:41.898Z,9.48
2023-06-21T09:11:11.025Z,8.90
2023-06-21T09:13:39.893Z,7.45
2023-06-21T09:16:08.134Z,10.43
2023-06-21T09:18:40.767Z,9.60
2023-06-21T09:21:11.749Z,9.10
2023-06-21T09:23:42.219Z,15.30
2023-06-21T09:26:10.401Z,10.20
2023-06-21T09:28:37.448Z,9.68
2023-06-21T09:31:04.381Z,10.98
2023-06-21T09:33:31.362Z,24.23
2023-06-21T09:35:58.930Z,12.35
2023-06-21T09:38:27.630Z,13.65
2023-06-21T09:40:54.545Z,10.05
2023-06-21T09:43:23.049Z,10.43
2023-06-21T09:46:09.456Z,9.95
2023-06-21T09:51:06.905Z,9.05
2023-06-21T09:53:34.154Z,10.23
2023-06-21T09:56:02.275Z,8.27
2023-06-21T09:58:32.909Z,9.70
2023-06-21T10:01:01.772Z,9.00
2023-06-21T10:03:29.051Z,11.55
2023-06-21T10:05:57.748Z,12.55
2023-06-21T10:08:37.765Z,11.93
2023-06-21T10:11:04.811Z,13.25
2023-06-21T10:13:33.897Z,9.00
2023-06-21T10:16:03.011Z,9.77
2023-06-21T10:18:30.674Z,9.38
2023-06-21T10:21:03.080Z,9.82
2023-06-21T10:23:33.515Z,15.00
2023-06-21T10:26:03.077Z,8.98
2023-06-21T10:28:36.482Z,12.70
2023-06-21T10:31:05.330Z,9.68
2023-06-21T10:33:35.409Z,10.40
2023-06-21T10:36:04.800Z,13.02
2023-06-21T10:38:44.236Z,9.20
2023-06-21T10:41:13.524Z,9.52
2023-06-21T10:43:41.863Z,8.13
2023-06-21T10:46:11.283Z,11.77
2023-06-21T10:48:39.060Z,14.23
2023-06-21T10:51:06.891Z,11.00
2023-06-21T10:53:35.303Z,9.82
2023-06-21T10:56:05.672Z,16.35
2023-06-21T10:58:33.001Z,14.13
2023-06-21T11:01:00.212Z,8.25
2023-06-21T11:03:28.394Z,9.00
2023-06-21T11:06:30.122Z,10.10
2023-06-21T11:09:08.145Z,12.48
2023-06-21T11:11:40.975Z,8.93
2023-06-21T11:14:08.284Z,7.43
2023-06-21T11:16:36.729Z,13.30
2023-06-21T11:19:15.418Z,13.00
2023-06-21T11:21:52.061Z,11.73
2023-06-21T11:24:20.983Z,11.32
2023-06-21T11:27:04.475Z,9.52
2023-06-21T11:29:37.059Z,11.55
2023-06-21T11:32:15.197Z,24.92
2023-06-21T11:35:02.156Z,11.32
2023-06-21T11:37:48.941Z,10.90
2023-06-21T11:40:17.513Z,12.30
2023-06-21T11:42:49.401Z,9.10
2023-06-21T11:45:37.232Z,9.75
2023-06-21T11:48:04.253Z,13.15
2023-06-21T11:50:36.856Z,16.77
2023-06-21T11:53:30.820Z,9.35
2023-06-21T11:56:01.652Z,9.63
2023-06-21T11:58:29.669Z,11.80
2023-06-21T12:14:59.223Z,15.63
2023-06-21T12:17:26.258Z,11.25
2023-06-21T12:19:53.353Z,12.43
2023-06-21T12:22:22.561Z,9.15
2023-06-21T12:24:53.554Z,10.55
2023-06-21T12:27:20.549Z,10.48
2023-06-21T12:29:56.609Z,9.88
2023-06-21T12:34:50.614Z,11.88
2023-06-21T12:37:24.600Z,11.20
2023-06-21T12:39:54.891Z,11.88
2023-06-21T12:42:31.147Z,10.52
2023-06-21T12:44:59.281Z,11.10
2023-06-21T12:47:26.706Z,11.82
2023-06-21T12:50:01.685Z,11.60
2023-06-21T12:52:30.269Z,9.60
2023-06-21T12:54:57.848Z,15.25
2023-06-21T12:57:31.593Z,8.90
2023-06-21T12:59:59.032Z,9.63
2023-06-21T13:02:29.317Z,12.05
2023-06-21T13:04:57.246Z,10.38
2023-06-21T13:07:24.189Z,12.20
2023-06-21T13:09:51.739Z,11.68
2023-06-21T13:12:19.266Z,14.18
2023-06-21T13:14:46.765Z,16.88
2023-06-21T13:17:13.707Z,14.93
2023-06-21T13:22:22.200Z,8.93
2023-06-21T13:24:50.473Z,10.20
2023-06-21T13:27:18.384Z,10.07
2023-06-21T13:29:45.226Z,9.20
2023-06-21T13:32:12.170Z,13.63
2023-06-21T13:34:39.047Z,10.10
2023-06-21T13:37:06.037Z,9.05
2023-06-21T13:39:34.510Z,8.02
2023-06-21T13:42:02.238Z,7.65
2023-06-21T13:44:29.173Z,8.88
2023-06-21T13:46:56.149Z,8.10
2023-06-21T13:49:23.029Z,7.88
2023-06-21T13:51:49.948Z,14.13
2023-06-21T13:54:16.926Z,9.38
2023-06-21T13:56:43.892Z,11.30
2023-06-21T13:59:10.751Z,13.43
2023-06-21T14:01:37.695Z,8.25
2023-06-21T14:04:05.978Z,7.95
2023-06-21T14:06:33.109Z,9.10
2023-06-21T14:08:59.965Z,9.85
2023-06-21T14:11:26.791Z,8.77
2023-06-21T14:13:53.749Z,9.77
2023-06-21T14:16:20.778Z,8.95
2023-06-21T14:18:48.586Z,10.80
2023-06-21T14:21:16.728Z,8.18
2023-06-21T14:23:43.850Z,13.55
2023-06-21T14:26:10.722Z,10.25
2023-06-21T14:28:40.896Z,9.07
2023-06-21T14:31:08.055Z,8.48
2023-06-21T14:33:34.950Z,8.85
2023-06-21T14:36:01.829Z,6.93
2023-06-21T14:38:30.510Z,10.73
2023-06-21T14:40:57.880Z,7.25
2023-06-21T14:43:24.693Z,8.52
2023-06-21T14:45:54.030Z,7.15
2023-06-21T14:48:21.385Z,8.88
2023-06-21T14:50:48.299Z,6.75
2023-06-21T14:53:15.335Z,8.30
2023-06-21T14:55:44.847Z,10.27
2023-06-21T14:58:11.700Z,7.60
2023-06-21T15:00:40.089Z,8.23
2023-06-21T15:03:07.145Z,9.50
2023-06-21T15:05:34.125Z,8.00
2023-06-21T15:08:02.541Z,9.15
2023-06-21T15:10:29.886Z,9.52
2023-06-21T15:13:02.061Z,11.18
2023-06-21T15:15:30.534Z,10.85
2023-06-21T15:17:57.954Z,8.52
2023-06-21T15:20:24.925Z,10.05
2023-06-21T15:22:51.992Z,10.85
2023-06-21T15:25:19.025Z,13.23
2023-06-21T15:27:46.026Z,9.18
2023-06-21T15:30:14.324Z,11.15
2023-06-21T15:32:41.564Z,9.45
2023-06-21T15:35:10.792Z,8.85
2023-06-21T15:37:40.550Z,11.70
2023-06-21T15:40:11.465Z,8.68
2023-06-21T15:42:43.727Z,13.60
2023-06-21T15:45:11.076Z,9.32
2023-06-21T15:47:38.143Z,8.57
2023-06-21T15:50:07.958Z,9.13
2023-06-21T15:52:34.960Z,8.38
2023-06-21T15:55:01.783Z,8.43
2023-06-21T15:57:28.668Z,8.95
2023-06-21T15:59:55.641Z,8.02
2023-06-21T16:05:05.218Z,11.63
2023-06-21T16:07:32.196Z,7.82
2023-06-21T16:09:59.983Z,8.38
2023-06-21T16:12:27.057Z,10.23
2023-06-21T16:14:55.796Z,15.20
2023-06-21T16:17:23.515Z,12.35
2023-06-21T16:19:50.539Z,10.43
2023-06-21T16:22:17.634Z,8.85
2023-06-21T16:24:44.642Z,10.45
2023-06-21T16:27:11.716Z,9.85
2023-06-21T16:29:38.547Z,8.07
2023-06-21T16:32:05.800Z,9.63
2023-06-21T16:34:32.908Z,9.85
2023-06-21T16:36:59.817Z,8.23
2023-06-21T16:39:26.662Z,10.32
2023-06-21T16:41:53.688Z,11.25
2023-06-21T16:44:20.595Z,10.68
2023-06-21T16:46:47.451Z,11.35
2023-06-21T16:49:14.372Z,17.45
2023-06-21T16:51:41.178Z,15.98
2023-06-21T16:54:09.090Z,19.35
2023-06-21T16:56:36.005Z,8.90
2023-06-21T16:59:03.795Z,14.75
2023-06-21T17:01:30.697Z,10.10
2023-06-21T17:03:57.726Z,10.05
2023-06-21T17:06:25.620Z,11.10
2023-06-21T17:08:55.545Z,11.98
2023-06-21T17:11:24.080Z,12.32
2023-06-21T17:13:51.162Z,8.85
2023-06-21T17:16:18.003Z,16.70
2023-06-21T17:18:44.936Z,12.55
2023-06-21T17:21:11.785Z,9.93
2023-06-21T17:23:40.736Z,12.32
2023-06-21T17:26:09.854Z,11.23
2023-06-21T17:28:37.612Z,18.40
2023-06-21T17:31:04.622Z,18.30
2023-06-21T17:33:31.680Z,15.82
2023-06-21T17:35:58.985Z,12.60
2023-06-21T17:38:25.951Z,16.35
2023-06-21T17:40:53.026Z,19.65
2023-06-21T17:43:20.179Z,14.20
2023-06-21T17:45:47.066Z,14.05
2023-06-21T17:48:15.146Z,12.52
2023-06-21T17:50:42.242Z,11.70
2023-06-21T17:53:10.126Z,13.65
2023-06-21T17:55:37.211Z,11.07
2023-06-21T17:58:06.525Z,15.85
2023-06-21T18:00:34.985Z,11.15
2023-06-21T18:03:01.967Z,11.63
2023-06-21T18:05:29.040Z,12.52
2023-06-21T18:07:56.244Z,8.68
2023-06-21T18:10:23.225Z,11.23
2023-06-21T18:12:50.059Z,10.73
2023-06-21T18:15:17.503Z,12.63
2023-06-21T18:17:44.458Z,13.20
2023-06-21T18:20:12.997Z,15.40
2023-06-21T18:22:43.685Z,12.32
2023-06-21T18:25:11.097Z,11.55
2023-06-21T18:27:37.966Z,11.30
2023-06-21T18:30:10.010Z,14.80
2023-06-21T18:32:39.237Z,19.60
2023-06-21T18:35:09.860Z,12.30
2023-06-21T18:37:39.900Z,18.75
2023-06-21T18:40:08.796Z,15.70
2023-06-21T18:42:35.890Z,11.98
2023-06-21T18:45:02.926Z,17.80
2023-06-21T18:47:29.868Z,18.20
2023-06-21T18:49:58.473Z,17.48
2023-06-21T18:52:25.442Z,27.02
2023-06-21T18:54:52.800Z,21.88
2023-06-21T18:57:19.879Z,25.83
2023-06-21T18:59:46.933Z,16.80
2023-06-21T19:02:13.833Z,24.25
2023-06-21T19:04:43.767Z,16.17
2023-06-21T19:07:11.582Z,19.90
2023-06-21T19:09:38.681Z,22.00
2023-06-21T19:12:06.415Z,21.88
2023-06-21T19:14:33.827Z,17.52
2023-06-21T19:17:01.534Z,23.88
2023-06-21T19:19:28.413Z,20.63
2023-06-21T19:21:59.724Z,24.30
2023-06-21T19:24:28.883Z,19.70
2023-06-21T19:26:55.971Z,25.73
2023-06-21T19:29:23.045Z,25.13
2023-06-21T19:31:50.467Z,23.75
2023-06-21T19:34:21.268Z,27.98
2023-06-21T19:36:48.213Z,23.10
2023-06-21T19:39:15.472Z,23.50
2023-06-21T19:41:42.352Z,26.33
2023-06-21T19:44:11.511Z,27.77
2023-06-21T19:46:40.844Z,23.80
2023-06-21T19:49:07.869Z,26.00
2023-06-21T19:51:34.923Z,27.20
2023-06-21T19:54:02.451Z,24.05
2023-06-21T19:56:29.460Z,29.15
2023-06-21T19:58:58.312Z,24.85
2023-06-21T20:04:34.353Z,27.47
2023-06-21T20:07:01.660Z,22.35
2023-06-21T20:09:28.890Z,24.70
2023-06-21T20:11:56.244Z,23.92
2023-06-21T20:14:23.294Z,27.75
2023-06-21T20:16:50.234Z,23.23
2023-06-21T20:19:17.321Z,26.52
2023-06-21T20:21:46.938Z,23.92
2023-06-21T20:24:15.063Z,28.92
2023-06-21T20:26:43.360Z,28.58
2023-06-21T20:29:10.408Z,23.90
2023-06-21T20:31:37.738Z,26.98
2023-06-21T20:34:04.840Z,23.73
2023-06-21T20:36:34.798Z,21.58
2023-06-21T20:39:06.991Z,24.40
2023-06-21T20:41:33.947Z,22.58
2023-06-21T20:44:03.204Z,25.83
2023-06-21T20:46:30.356Z,27.10
2023-06-21T20:48:59.751Z,21.45
2023-06-21T20:51:26.812Z,18.95
2023-06-21T20:53:53.909Z,22.17
2023-06-21T20:56:22.930Z,23.80
2023-06-21T20:58:49.834Z,17.40
2023-06-21T21:01:16.997Z,19.73
2023-06-21T21:03:45.955Z,16.33
2023-06-21T21:06:13.237Z,27.90
2023-06-21T21:08:40.870Z,23.88
2023-06-21T21:11:10.715Z,22.35
2023-06-21T21:13:41.880Z,16.27
2023-06-21T21:16:09.198Z,21.13
2023-06-21T21:18:36.072Z,17.10
2023-06-21T21:21:07.166Z,20.65
2023-06-21T21:23:34.015Z,17.77
2023-06-21T21:26:00.913Z,21.13
2023-06-21T21:28:28.152Z,17.20
2023-06-21T21:30:55.178Z,22.67
2023-06-21T21:33:22.170Z,17.00
2023-06-21T21:35:49.324Z,22.15
2023-06-21T21:38:16.272Z,18.77
2023-06-21T21:40:43.152Z,20.38
2023-06-21T21:43:10.474Z,19.67
2023-06-21T21:45:37.332Z,19.25
2023-06-21T21:48:04.764Z,17.75
2023-06-21T21:50:31.885Z,23.92
2023-06-21T21:52:58.797Z,21.55
2023-06-21T21:55:27.591Z,18.52
2023-06-21T21:57:54.536Z,19.15
2023-06-21T22:00:21.782Z,16.70
2023-06-21T22:02:49.116Z,22.85
2023-06-21T22:05:16.269Z,23.30
2023-06-21T22:07:43.261Z,18.73
2023-06-21T22:10:17.921Z,20.90
2023-06-21T22:12:52.577Z,20.25
2023-06-21T22:15:19.488Z,20.33
2023-06-21T22:17:46.473Z,22.33
2023-06-21T22:20:16.817Z,18.30
2023-06-21T22:22:44.300Z,17.50
2023-06-21T22:25:14.386Z,13.82
2023-06-21T22:27:42.242Z,18.38
2023-06-21T22:30:10.656Z,17.65
2023-06-21T22:32:37.706Z,15.93
2023-06-21T22:35:05.176Z,16.55
2023-06-21T22:37:35.066Z,20.15
2023-06-21T22:40:02.110Z,17.88
2023-06-21T22:42:29.082Z,26.00
2023-06-21T22:44:56.143Z,17.95
2023-06-21T22:47:24.840Z,17.48
2023-06-21T22:49:54.663Z,15.90
2023-06-21T22:52:21.789Z,15.68
2023-06-21T22:54:48.626Z,16.35
2023-06-21T22:57:15.744Z,16.27
2023-06-21T22:59:42.654Z,16.10
2023-06-21T23:02:09.837Z,14.85
2023-06-21T23:04:36.998Z,16.30
2023-06-21T23:07:04.189Z,14.15
2023-06-21T23:09:32.465Z,13.98
2023-06-21T23:11:59.776Z,17.58
2023-06-21T23:14:26.777Z,16.30
2023-06-21T23:16:53.717Z,15.10
2023-06-21T23:19:20.748Z,15.68
2023-06-21T23:21:47.692Z,16.98
2023-06-21T23:24:14.998Z,15.75
2023-06-21T23:26:42.589Z,17.13
2023-06-21T23:29:12.665Z,17.50
2023-06-21T23:31:40.010Z,15.27
2023-06-21T23:34:07.391Z,19.83
2023-06-21T23:36:34.904Z,14.68
2023-06-21T23:39:02.260Z,14.68
2023-06-21T23:41:30.360Z,17.50
2023-06-21T23:44:00.403Z,20.35
2023-06-21T23:46:32.013Z,14.85
2023-06-21T23:49:00.932Z,14.18
2023-06-21T23:51:31.339Z,17.63
2023-06-21T23:53:59.001Z,21.15
2023-06-21T23:56:27.887Z,18.02
2023-06-21T23:58:55.228Z,23.60
